Time;durP1;ratioP1;P1;durP2;ratioP2;P2;SDS_P1;SDS_P2;PMS_P1;PMS_P2;Temp;Humidity;BMP_temperature;BMP_pressure;BME280_temperature;BME280_humidity;BME280_pressure;Samples;Min_cycle;Max_cycle;Signal;HPM_P1;HPM_P2
2023/01/14 00:01:33;;;;;;;3.97;1.67;;;;;;;;;;5117191;28;20122;-79
2023/01/14 00:04:00;;;;;;;4.15;1.42;;;;;;;;;;5116874;28;20039;-81
2023/01/14 00:06:28;;;;;;;3.35;1.40;;;;;;;;;;5098237;28;20069;-80
2023/01/14 00:08:55;;;;;;;3.75;1.38;;;;;;;;;;5116767;28;20758;-80
2023/01/14 00:14:06;;;;;;;4.75;1.50;;;;;;;;;;5119407;28;20165;-79
2023/01/14 00:16:32;;;;;;;3.50;1.17;;;;;;;;;;5106294;28;20028;-80
2023/01/14 00:18:58;;;;;;;3.10;1.10;;;;;;;;;;5098575;28;20090;-80
2023/01/14 00:21:24;;;;;;;3.78;1.10;;;;;;;;;;5096313;28;20492;-80
2023/01/14 00:23:53;;;;;;;3.53;1.27;;;;;;;;;;5116296;28;20024;-81
2023/01/14 00:26:19;;;;;;;4.15;0.93;;;;;;;;;;5096813;28;20020;-81
2023/01/14 00:28:49;;;;;;;3.42;1.00;;;;;;;;;;5096378;28;20074;-80
2023/01/14 00:31:17;;;;;;;4.72;1.25;;;;;;;;;;5116228;28;20023;-81
2023/01/14 00:33:43;;;;;;;2.97;1.05;;;;;;;;;;5102614;28;20115;-80
2023/01/14 00:36:10;;;;;;;3.95;1.33;;;;;;;;;;5116968;28;20024;-80
2023/01/14 00:38:37;;;;;;;2.78;1.20;;;;;;;;;;5117665;28;20026;-80
2023/01/14 00:41:11;;;;;;;3.10;1.08;;;;;;;;;;5113275;28;20055;-78
2023/01/14 00:43:39;;;;;;;3.13;1.45;;;;;;;;;;5110873;28;20114;-79
2023/01/14 00:46:05;;;;;;;3.20;0.93;;;;;;;;;;5092150;28;20036;-79
2023/01/14 00:48:32;;;;;;;2.22;1.05;;;;;;;;;;5090951;28;20028;-78
2023/01/14 00:50:58;;;;;;;3.22;1.25;;;;;;;;;;5092448;28;20035;-81
2023/01/14 00:53:24;;;;;;;3.05;1.05;;;;;;;;;;5095710;28;20659;-78
2023/01/14 00:55:50;;;;;;;2.97;1.00;;;;;;;;;;5089983;28;20504;-78
2023/01/14 00:58:16;;;;;;;2.28;0.80;;;;;;;;;;5091695;28;20022;-78
2023/01/14 01:00:43;;;;;;;3.28;1.10;;;;;;;;;;5097451;28;20077;-78
2023/01/14 01:03:09;;;;;;;4.80;1.08;;;;;;;;;;5111995;28;20486;-78
2023/01/14 01:05:36;;;;;;;3.55;1.33;;;;;;;;;;5113357;28;20034;-78
2023/01/14 01:08:03;;;;;;;2.92;0.90;;;;;;;;;;5113032;28;20035;-78
2023/01/14 01:10:30;;;;;;;4.35;1.02;;;;;;;;;;5109852;28;20031;-77
2023/01/14 01:12:56;;;;;;;4.18;1.00;;;;;;;;;;5106680;28;20016;-79
2023/01/14 01:15:22;;;;;;;2.55;1.10;;;;;;;;;;5113592;28;20091;-81
2023/01/14 01:17:48;;;;;;;3.10;1.27;;;;;;;;;;5125039;28;20212;-79
2023/01/14 01:20:14;;;;;;;2.85;1.10;;;;;;;;;;5127510;28;20373;-78
2023/01/14 01:22:40;;;;;;;4.28;1.00;;;;;;;;;;5110765;28;20024;-78
2023/01/14 01:25:06;;;;;;;3.83;1.15;;;;;;;;;;5111780;28;20031;-78
2023/01/14 01:27:32;;;;;;;3.65;1.02;;;;;;;;;;5102314;28;20031;-78
2023/01/14 01:29:58;;;;;;;2.83;1.00;;;;;;;;;;5095657;28;20046;-78
2023/01/14 01:32:25;;;;;;;2.78;1.10;;;;;;;;;;5109374;28;20400;-79
2023/01/14 01:34:51;;;;;;;4.13;1.08;;;;;;;;;;5114894;28;20016;-79
2023/01/14 01:37:17;;;;;;;3.22;1.00;;;;;;;;;;5118323;28;20023;-79
2023/01/14 01:39:43;;;;;;;3.22;1.17;;;;;;;;;;5113813;28;20035;-77
2023/01/14 01:42:15;;;;;;;2.47;0.90;;;;;;;;;;5094631;28;20389;-78
2023/01/14 01:44:41;;;;;;;2.45;1.02;;;;;;;;;;5106941;28;20055;-78
2023/01/14 01:47:11;;;;;;;2.50;1.00;;;;;;;;;;5113796;28;20395;-78
2023/01/14 01:49:38;;;;;;;3.22;1.08;;;;;;;;;;5103289;28;20024;-78
2023/01/14 01:52:04;;;;;;;3.58;1.40;;;;;;;;;;5094805;28;20028;-78
2023/01/14 01:54:34;;;;;;;2.58;0.98;;;;;;;;;;5093345;28;20039;-78
2023/01/14 01:57:00;;;;;;;6.18;1.55;;;;;;;;;;5102883;28;20020;-78
2023/01/14 01:59:29;;;;;;;3.00;0.90;;;;;;;;;;5122567;28;20015;-77
2023/01/14 02:01:55;;;;;;;4.45;1.00;;;;;;;;;;5128101;28;20040;-77
2023/01/14 02:04:22;;;;;;;4.75;1.35;;;;;;;;;;5132947;28;20098;-80
2023/01/14 02:06:48;;;;;;;2.75;1.00;;;;;;;;;;5126167;28;20096;-78
2023/01/14 02:09:15;;;;;;;2.30;1.10;;;;;;;;;;5107293;28;20035;-79
2023/01/14 02:11:59;;;;;;;3.78;0.90;;;;;;;;;;5108214;28;20364;-78
2023/01/14 02:14:32;;;;;;;3.90;1.10;;;;;;;;;;5098524;28;20020;-79
2023/01/14 02:16:58;;;;;;;2.83;1.10;;;;;;;;;;5102021;28;20375;-79
2023/01/14 02:19:33;;;;;;;3.72;1.20;;;;;;;;;;5106130;28;20529;-79
2023/01/14 02:22:11;;;;;;;3.08;1.05;;;;;;;;;;5096274;28;20083;-79
2023/01/14 02:24:40;;;;;;;3.28;1.20;;;;;;;;;;5095992;28;20548;-78
2023/01/14 02:27:25;;;;;;;4.13;0.98;;;;;;;;;;5107847;28;20031;-79
2023/01/14 02:30:06;;;;;;;3.88;1.10;;;;;;;;;;5101376;28;20028;-78
2023/01/14 02:32:51;;;;;;;2.67;1.17;;;;;;;;;;5096038;28;20023;-79
2023/01/14 02:35:23;;;;;;;3.97;1.25;;;;;;;;;;5096524;28;20032;-79
2023/01/14 02:37:53;;;;;;;3.53;1.38;;;;;;;;;;5095969;28;20099;-79
2023/01/14 02:40:28;;;;;;;4.50;1.55;;;;;;;;;;5110639;28;20039;-80
2023/01/14 02:45:48;;;;;;;3.72;1.17;;;;;;;;;;5095498;28;20374;-79
2023/01/14 02:48:15;;;;;;;3.95;1.27;;;;;;;;;;5096758;28;20031;-79
2023/01/14 02:50:41;;;;;;;2.38;1.10;;;;;;;;;;5116612;28;20038;-79
2023/01/14 02:53:11;;;;;;;3.90;1.10;;;;;;;;;;5112655;28;20138;-80
2023/01/14 02:55:38;;;;;;;4.05;1.40;;;;;;;;;;5095871;28;20069;-79
2023/01/14 02:58:22;;;;;;;4.50;1.58;;;;;;;;;;5106524;28;20023;-79
2023/01/14 03:01:01;;;;;;;4.38;1.40;;;;;;;;;;5096837;28;20028;-80
2023/01/14 03:03:42;;;;;;;2.90;1.45;;;;;;;;;;5097887;28;20028;-79
2023/01/14 03:06:20;;;;;;;2.75;1.20;;;;;;;;;;5105049;28;20034;-80
2023/01/14 03:09:01;;;;;;;3.10;1.23;;;;;;;;;;5101493;28;20036;-79
2023/01/14 03:11:37;;;;;;;3.80;1.30;;;;;;;;;;5100321;28;20032;-79
2023/01/14 03:14:04;;;;;;;3.70;1.30;;;;;;;;;;5099592;28;20031;-80
2023/01/14 03:16:33;;;;;;;5.07;1.67;;;;;;;;;;5102805;28;20020;-79
2023/01/14 03:19:09;;;;;;;5.35;1.42;;;;;;;;;;5103386;28;20088;-80
2023/01/14 03:21:37;;;;;;;3.05;1.40;;;;;;;;;;5114270;28;20032;-79
2023/01/14 03:24:06;;;;;;;3.45;1.70;;;;;;;;;;5105300;28;20043;-79
2023/01/14 03:26:34;;;;;;;4.97;1.70;;;;;;;;;;5106819;28;20035;-79
2023/01/14 03:29:01;;;;;;;3.97;1.80;;;;;;;;;;5113707;28;20371;-79
2023/01/14 03:31:28;;;;;;;5.38;1.90;;;;;;;;;;5114120;28;20078;-79
2023/01/14 03:33:59;;;;;;;3.95;1.70;;;;;;;;;;5114556;28;20020;-80
2023/01/14 03:36:27;;;;;;;4.95;1.40;;;;;;;;;;5107055;28;20102;-79
2023/01/14 03:38:58;;;;;;;4.18;1.73;;;;;;;;;;5110263;28;20076;-80
2023/01/14 03:44:14;;;;;;;3.75;1.60;;;;;;;;;;5115565;28;20054;-79
2023/01/14 03:46:40;;;;;;;5.45;1.77;;;;;;;;;;5114518;28;20012;-80
2023/01/14 03:49:06;;;;;;;3.53;1.50;;;;;;;;;;5110899;28;20087;-80
2023/01/14 03:51:32;;;;;;;4.47;1.90;;;;;;;;;;5100722;28;20103;-80
2023/01/14 03:53:58;;;;;;;3.42;1.40;;;;;;;;;;5102169;28;20051;-80
2023/01/14 03:56:34;;;;;;;2.97;1.40;;;;;;;;;;5096261;28;20078;-81
2023/01/14 03:59:05;;;;;;;3.50;1.40;;;;;;;;;;5106536;28;20035;-80
2023/01/14 04:01:41;;;;;;;3.53;1.50;;;;;;;;;;5113851;28;20462;-79
2023/01/14 04:04:07;;;;;;;4.03;1.63;;;;;;;;;;5098096;28;20478;-80
2023/01/14 04:06:33;;;;;;;3.00;1.27;;;;;;;;;;5094239;28;20055;-79
2023/01/14 04:09:00;;;;;;;3.83;1.52;;;;;;;;;;5105785;28;20547;-79
2023/01/14 04:11:26;;;;;;;3.00;1.30;;;;;;;;;;5117822;28;20517;-79
2023/01/14 04:16:36;;;;;;;4.10;1.55;;;;;;;;;;5104251;28;20042;-79
2023/01/14 04:19:02;;;;;;;3.05;1.20;;;;;;;;;;5102678;28;20024;-81
2023/01/14 04:21:28;;;;;;;3.03;1.27;;;;;;;;;;5095029;28;20042;-78
2023/01/14 04:23:54;;;;;;;3.78;1.88;;;;;;;;;;5101809;28;20413;-79
2023/01/14 04:26:20;;;;;;;4.10;1.38;;;;;;;;;;5114773;28;20020;-80
2023/01/14 04:28:46;;;;;;;3.25;1.40;;;;;;;;;;5113108;28;20027;-80
2023/01/14 04:31:12;;;;;;;3.65;1.45;;;;;;;;;;5106898;28;20024;-80
2023/01/14 04:33:38;;;;;;;2.95;1.27;;;;;;;;;;5094131;28;20028;-80
2023/01/14 04:36:04;;;;;;;3.92;1.50;;;;;;;;;;5094992;28;20020;-79
2023/01/14 04:38:30;;;;;;;3.42;1.95;;;;;;;;;;5101350;28;20099;-79
2023/01/14 04:40:56;;;;;;;2.65;1.20;;;;;;;;;;5110078;28;20020;-79
2023/01/14 04:43:23;;;;;;;3.47;1.70;;;;;;;;;;5112530;28;20128;-79
2023/01/14 04:45:53;;;;;;;3.25;1.20;;;;;;;;;;5112835;28;20038;-81
2023/01/14 04:48:20;;;;;;;3.28;1.50;;;;;;;;;;5099956;28;20240;-79
2023/01/14 04:50:46;;;;;;;2.45;1.00;;;;;;;;;;5105715;28;20039;-78
2023/01/14 04:53:17;;;;;;;4.53;1.60;;;;;;;;;;5117728;28;20106;-79
2023/01/14 04:55:45;;;;;;;3.03;1.27;;;;;;;;;;5099696;28;20083;-79
2023/01/14 04:58:12;;;;;;;3.35;1.50;;;;;;;;;;5097994;28;20016;-79
2023/01/14 05:00:38;;;;;;;4.20;2.20;;;;;;;;;;5098512;28;20024;-79
2023/01/14 05:03:05;;;;;;;3.22;1.27;;;;;;;;;;5098180;28;20107;-78
2023/01/14 05:05:32;;;;;;;2.58;1.20;;;;;;;;;;5097338;28;20062;-80
2023/01/14 05:07:58;;;;;;;2.65;1.20;;;;;;;;;;5097156;28;20373;-79
2023/01/14 05:10:24;;;;;;;3.15;1.30;;;;;;;;;;5096966;27;20658;-79
2023/01/14 05:12:56;;;;;;;3.70;1.40;;;;;;;;;;5111782;28;20024;-79
2023/01/14 05:15:26;;;;;;;4.68;1.60;;;;;;;;;;5111878;28;20042;-79
2023/01/14 05:17:52;;;;;;;3.05;1.38;;;;;;;;;;5097593;28;20093;-79
2023/01/14 05:20:18;;;;;;;2.72;1.30;;;;;;;;;;5096141;28;20023;-79
2023/01/14 05:22:44;;;;;;;5.18;1.60;;;;;;;;;;5115934;28;20028;-77
2023/01/14 05:25:10;;;;;;;4.15;1.60;;;;;;;;;;5114799;28;20114;-79
2023/01/14 05:27:36;;;;;;;4.55;1.80;;;;;;;;;;5110548;28;20024;-78
2023/01/14 05:30:03;;;;;;;7.15;3.25;;;;;;;;;;5096502;28;20027;-79
2023/01/14 05:32:29;;;;;;;6.38;2.88;;;;;;;;;;5096744;28;20028;-78
2023/01/14 05:34:55;;;;;;;5.07;2.67;;;;;;;;;;5097184;28;20037;-78
2023/01/14 05:37:21;;;;;;;4.82;1.52;;;;;;;;;;5097056;28;20413;-78
2023/01/14 05:39:47;;;;;;;3.25;1.40;;;;;;;;;;5097870;28;20024;-78
2023/01/14 05:47:42;;;;;;;3.70;1.23;;;;;;;;;;5096850;28;20262;-78
2023/01/14 05:50:10;;;;;;;2.33;1.00;;;;;;;;;;5114253;28;20421;-79
2023/01/14 05:52:36;;;;;;;3.80;1.20;;;;;;;;;;5098587;28;20031;-78
2023/01/14 05:55:02;;;;;;;4.22;1.20;;;;;;;;;;5114282;28;20028;-79
2023/01/14 05:57:28;;;;;;;2.42;1.10;;;;;;;;;;5105943;28;20507;-79
2023/01/14 05:59:54;;;;;;;6.55;1.75;;;;;;;;;;5097046;28;20024;-78
2023/01/14 06:07:54;;;;;;;6.13;1.30;;;;;;;;;;5054299;28;20059;-78
2023/01/14 06:10:24;;;;;;;5.18;1.60;;;;;;;;;;5095492;28;20486;-79
2023/01/14 06:13:03;;;;;;;4.40;1.48;;;;;;;;;;5097731;28;20023;-79
2023/01/14 06:15:35;;;;;;;3.80;1.25;;;;;;;;;;5096929;28;20105;-79
2023/01/14 06:18:14;;;;;;;5.10;1.55;;;;;;;;;;5103136;27;20127;-78
2023/01/14 06:20:42;;;;;;;4.90;1.75;;;;;;;;;;5113399;28;20064;-79
2023/01/14 06:23:08;;;;;;;6.05;2.08;;;;;;;;;;5104468;27;20046;-79
2023/01/14 06:25:34;;;;;;;7.35;2.70;;;;;;;;;;5104928;27;20055;-77
2023/01/14 06:28:01;;;;;;;6.03;2.40;;;;;;;;;;5108346;27;20028;-78
2023/01/14 06:30:27;;;;;;;8.20;4.15;;;;;;;;;;5109833;28;20032;-78
2023/01/14 06:32:54;;;;;;;7.28;3.45;;;;;;;;;;5114021;28;20038;-79
2023/01/14 06:35:20;;;;;;;3.30;1.27;;;;;;;;;;5113703;28;20092;-79
2023/01/14 06:37:46;;;;;;;4.22;1.17;;;;;;;;;;5099671;28;20031;-79
2023/01/14 06:40:13;;;;;;;3.22;1.15;;;;;;;;;;5100075;28;20213;-79
2023/01/14 06:42:40;;;;;;;3.10;0.98;;;;;;;;;;5109542;28;20019;-78
2023/01/14 06:45:07;;;;;;;3.78;1.45;;;;;;;;;;5115904;28;20047;-78
2023/01/14 06:47:33;;;;;;;3.58;1.25;;;;;;;;;;5116769;28;20469;-79
2023/01/14 06:49:59;;;;;;;2.78;1.00;;;;;;;;;;5110511;27;20037;-78
2023/01/14 06:52:25;;;;;;;4.03;1.20;;;;;;;;;;5109908;28;20107;-78
2023/01/14 06:54:53;;;;;;;3.88;1.52;;;;;;;;;;5096951;28;20078;-79
2023/01/14 06:57:19;;;;;;;2.58;0.93;;;;;;;;;;5098637;27;20022;-80
2023/01/14 06:59:45;;;;;;;3.17;1.10;;;;;;;;;;5114624;28;20027;-79
2023/01/14 07:02:11;;;;;;;3.42;1.42;;;;;;;;;;5114704;28;20473;-79
2023/01/14 07:04:38;;;;;;;4.68;1.25;;;;;;;;;;5114389;28;20421;-79
2023/01/14 07:07:04;;;;;;;3.58;1.27;;;;;;;;;;5101054;28;20028;-79
2023/01/14 07:09:30;;;;;;;5.63;1.42;;;;;;;;;;5097234;28;20032;-79
2023/01/14 07:11:56;;;;;;;7.50;2.05;;;;;;;;;;5115127;28;20031;-79
2023/01/14 07:14:22;;;;;;;6.20;1.90;;;;;;;;;;5115988;28;20030;-79
2023/01/14 07:16:48;;;;;;;4.38;1.60;;;;;;;;;;5096365;28;20035;-79
2023/01/14 07:19:13;;;;;;;3.42;1.30;;;;;;;;;;5108444;28;20452;-79
2023/01/14 07:21:40;;;;;;;4.15;1.00;;;;;;;;;;5095000;28;20102;-80
2023/01/14 07:24:06;;;;;;;5.05;1.50;;;;;;;;;;5096017;28;20035;-79
2023/01/14 07:26:32;;;;;;;3.88;1.27;;;;;;;;;;5110715;28;20493;-80
2023/01/14 07:28:58;;;;;;;4.05;1.20;;;;;;;;;;5115465;28;20034;-79
2023/01/14 07:31:24;;;;;;;5.15;1.38;;;;;;;;;;5107312;28;20031;-80
2023/01/14 07:33:50;;;;;;;3.13;1.13;;;;;;;;;;5107959;27;20031;-81
2023/01/14 07:36:16;;;;;;;4.53;1.30;;;;;;;;;;5111581;28;20023;-80
2023/01/14 07:38:42;;;;;;;4.80;1.20;;;;;;;;;;5109005;28;20034;-81
2023/01/14 07:41:12;;;;;;;4.55;1.23;;;;;;;;;;5103341;28;20028;-79
2023/01/14 07:43:38;;;;;;;3.55;1.45;;;;;;;;;;5109478;27;20038;-80
2023/01/14 07:46:06;;;;;;;3.25;1.00;;;;;;;;;;5105779;27;20024;-80
2023/01/14 07:48:32;;;;;;;3.75;1.38;;;;;;;;;;5109473;27;20019;-79
2023/01/14 07:50:58;;;;;;;4.95;1.55;;;;;;;;;;5117427;27;20119;-80
2023/01/14 07:53:24;;;;;;;4.35;1.40;;;;;;;;;;5117176;28;20138;-79
2023/01/14 07:55:50;;;;;;;3.25;1.15;;;;;;;;;;5118176;28;20524;-80
2023/01/14 07:58:17;;;;;;;3.22;1.30;;;;;;;;;;5121201;27;20027;-81
2023/01/14 08:00:43;;;;;;;3.95;1.40;;;;;;;;;;5108110;28;20098;-81
2023/01/14 08:03:09;;;;;;;5.97;1.20;;;;;;;;;;5115157;28;20075;-78
2023/01/14 08:05:35;;;;;;;3.65;1.38;;;;;;;;;;5104884;28;20405;-80
2023/01/14 08:08:01;;;;;;;5.25;1.30;;;;;;;;;;5103505;28;20035;-79
2023/01/14 08:10:27;;;;;;;4.75;1.40;;;;;;;;;;5107861;28;20054;-80
2023/01/14 08:12:53;;;;;;;3.33;1.30;;;;;;;;;;5118707;28;20019;-81
2023/01/14 08:15:19;;;;;;;2.78;1.08;;;;;;;;;;5101076;28;20031;-81
2023/01/14 08:17:45;;;;;;;3.47;1.20;;;;;;;;;;5117158;28;20023;-79
2023/01/14 08:20:11;;;;;;;3.42;1.33;;;;;;;;;;5112950;28;20392;-81
2023/01/14 08:22:38;;;;;;;5.95;1.60;;;;;;;;;;5101991;28;20478;-80
2023/01/14 08:25:04;;;;;;;3.95;1.20;;;;;;;;;;5105377;28;20079;-78
2023/01/14 08:27:30;;;;;;;5.00;1.30;;;;;;;;;;5110354;28;20028;-79
2023/01/14 08:29:56;;;;;;;5.22;1.40;;;;;;;;;;5115136;27;20028;-79
2023/01/14 08:32:25;;;;;;;5.13;1.88;;;;;;;;;;5099372;28;20421;-79
2023/01/14 08:34:51;;;;;;;4.97;2.33;;;;;;;;;;5103463;28;20363;-80
2023/01/14 08:37:19;;;;;;;2.92;1.23;;;;;;;;;;5105593;28;20450;-79
2023/01/14 08:39:45;;;;;;;4.30;1.33;;;;;;;;;;5120613;28;20511;-79
2023/01/14 08:42:11;;;;;;;4.70;1.80;;;;;;;;;;5108960;28;20028;-79
2023/01/14 08:44:37;;;;;;;4.32;1.42;;;;;;;;;;5098616;28;20122;-79
2023/01/14 08:47:03;;;;;;;4.15;1.25;;;;;;;;;;5099305;28;20055;-79
2023/01/14 08:49:31;;;;;;;5.22;1.45;;;;;;;;;;5115494;27;20028;-79
2023/01/14 08:51:57;;;;;;;4.05;1.52;;;;;;;;;;5109245;28;20035;-79
2023/01/14 08:54:23;;;;;;;4.28;1.35;;;;;;;;;;5128595;27;20019;-80
2023/01/14 08:56:50;;;;;;;3.88;1.52;;;;;;;;;;5111501;28;20021;-78
2023/01/14 08:59:16;;;;;;;3.25;1.20;;;;;;;;;;5105833;28;20114;-79
2023/01/14 09:01:42;;;;;;;2.65;1.00;;;;;;;;;;5108784;28;20023;-79
2023/01/14 09:04:08;;;;;;;3.75;1.27;;;;;;;;;;5111040;28;20028;-79
2023/01/14 09:17:04;;;;;;;3.10;1.38;;;;;;;;;;5099626;28;20390;-78
2023/01/14 09:17:34;;;;;;;4.78;1.25;;;;;;;;;;5098267;28;20031;-78
2023/01/14 09:20:01;;;;;;;4.50;1.10;;;;;;;;;;5109629;28;20043;-79
2023/01/14 09:22:28;;;;;;;5.53;1.45;;;;;;;;;;5099111;28;20063;-78
2023/01/14 09:24:55;;;;;;;4.07;1.40;;;;;;;;;;5098467;28;20117;-78
2023/01/14 09:27:21;;;;;;;4.13;1.33;;;;;;;;;;5097181;28;20073;-79
2023/01/14 09:29:47;;;;;;;5.38;1.10;;;;;;;;;;5109762;28;20507;-79
2023/01/14 09:32:15;;;;;;;2.65;1.00;;;;;;;;;;5114848;28;20043;-78
2023/01/14 09:34:47;;;;;;;2.70;1.00;;;;;;;;;;5115540;28;20028;-78
2023/01/14 09:37:13;;;;;;;3.00;1.10;;;;;;;;;;5117906;28;20028;-78
2023/01/14 09:39:40;;;;;;;2.83;1.00;;;;;;;;;;5118245;28;20468;-78
2023/01/14 09:42:08;;;;;;;4.20;1.20;;;;;;;;;;5117285;28;20027;-79
2023/01/14 09:44:34;;;;;;;3.35;1.10;;;;;;;;;;5108955;28;20161;-77
2023/01/14 09:47:00;;;;;;;5.18;1.27;;;;;;;;;;5099147;28;20028;-78
2023/01/14 09:49:28;;;;;;;5.15;1.40;;;;;;;;;;5119334;28;20606;-79
2023/01/14 09:52:12;;;;;;;3.22;0.90;;;;;;;;;;5102830;28;20556;-78
2023/01/14 09:54:57;;;;;;;3.20;0.95;;;;;;;;;;5106436;28;20032;-78
2023/01/14 09:57:35;;;;;;;3.60;1.20;;;;;;;;;;5109284;28;20023;-79
2023/01/14 10:00:06;;;;;;;4.03;1.52;;;;;;;;;;5117498;28;20012;-78
2023/01/14 10:02:38;;;;;;;4.00;1.15;;;;;;;;;;5122777;27;20019;-77
2023/01/14 10:05:21;;;;;;;2.85;1.20;;;;;;;;;;5106800;27;20088;-79
2023/01/14 10:07:50;;;;;;;2.92;0.98;;;;;;;;;;5102723;28;20032;-77
2023/01/14 10:10:32;;;;;;;2.80;1.05;;;;;;;;;;5096586;28;20024;-78
2023/01/14 10:13:09;;;;;;;4.40;1.30;;;;;;;;;;5094798;28;20024;-77
2023/01/14 10:16:07;;;;;;;4.57;1.30;;;;;;;;;;5110967;28;20096;-77
2023/01/14 10:18:58;;;;;;;2.75;0.95;;;;;;;;;;5058083;28;20526;-77
2023/01/14 10:21:39;;;;;;;3.65;1.17;;;;;;;;;;5051357;28;20402;-78
2023/01/14 10:24:13;;;;;;;4.43;1.48;;;;;;;;;;5050853;28;20375;-77
2023/01/14 10:26:48;;;;;;;2.85;0.98;;;;;;;;;;5048420;28;20577;-78
2023/01/14 10:29:20;;;;;;;2.67;0.82;;;;;;;;;;5065187;28;20547;-78
2023/01/14 10:31:54;;;;;;;4.75;1.05;;;;;;;;;;5067336;28;20736;-79
2023/01/14 10:34:35;;;;;;;3.92;1.30;;;;;;;;;;5056083;28;20530;-77
2023/01/14 10:37:05;;;;;;;4.25;1.13;;;;;;;;;;5062003;28;20131;-78
2023/01/14 10:39:35;;;;;;;5.22;1.48;;;;;;;;;;5065189;28;20147;-77
2023/01/14 10:42:05;;;;;;;4.13;1.27;;;;;;;;;;5053600;28;20039;-76
2023/01/14 10:44:45;;;;;;;3.25;0.98;;;;;;;;;;5064660;28;20102;-78
2023/01/14 10:47:17;;;;;;;5.88;1.25;;;;;;;;;;5052262;28;20142;-77
2023/01/14 10:50:09;;;;;;;2.88;1.00;;;;;;;;;;5046783;28;20048;-78
2023/01/14 10:52:42;;;;;;;3.42;1.27;;;;;;;;;;5047837;28;20032;-77
2023/01/14 10:55:28;;;;;;;3.00;1.10;;;;;;;;;;5051097;28;20044;-78
2023/01/14 10:58:12;;;;;;;2.83;0.80;;;;;;;;;;5068964;28;20505;-78
2023/01/14 11:00:56;;;;;;;;;;;;;;;;;;;;;
2023/01/14 11:03:28;;;;;;;3.60;1.10;;;;;;;;;;5053863;28;20025;-78
2023/01/14 11:05:58;;;;;;;5.45;1.20;;;;;;;;;;5062236;28;20537;-78
2023/01/14 11:08:33;;;;;;;2.92;1.00;;;;;;;;;;5051408;28;20040;-77
2023/01/14 11:11:07;;;;;;;3.05;1.13;;;;;;;;;;5052954;28;20522;-79
2023/01/14 11:13:48;;;;;;;5.07;1.20;;;;;;;;;;5052146;28;20037;-79
2023/01/14 11:16:20;;;;;;;3.75;0.93;;;;;;;;;;5053548;28;20025;-78
2023/01/14 11:18:55;;;;;;;2.88;0.90;;;;;;;;;;5061375;28;20124;-78
2023/01/14 11:21:29;;;;;;;2.97;1.08;;;;;;;;;;5068158;28;20115;-78
2023/01/14 11:24:07;;;;;;;2.60;1.00;;;;;;;;;;5069748;28;20156;-79
2023/01/14 11:26:42;;;;;;;3.92;1.15;;;;;;;;;;5070003;28;20047;-78
2023/01/14 11:29:29;;;;;;;2.72;0.95;;;;;;;;;;5067259;28;20024;-77
2023/01/14 11:32:15;;;;;;;;;;;;;;;;;;;;;
2023/01/14 11:34:57;;;;;;;4.38;1.20;;;;;;;;;;5064269;28;20028;-78
2023/01/14 11:37:28;;;;;;;4.07;1.20;;;;;;;;;;5051436;28;20043;-77
2023/01/14 11:40:00;;;;;;;3.38;0.95;;;;;;;;;;5052759;28;20033;-77
2023/01/14 11:42:34;;;;;;;2.95;1.20;;;;;;;;;;5048823;28;20031;-77
2023/01/14 11:45:03;;;;;;;3.40;1.10;;;;;;;;;;5071979;28;20060;-78
2023/01/14 11:48:05;;;;;;;2.55;0.88;;;;;;;;;;5097379;28;20077;-78
2023/01/14 11:50:50;;;;;;;;;;;;;;;;;;;;;
2023/01/14 11:53:18;;;;;;;2.58;0.95;;;;;;;;;;5066298;28;20033;-78
2023/01/14 11:55:54;;;;;;;4.40;0.90;;;;;;;;;;5053992;28;20032;-78
2023/01/14 11:58:25;;;;;;;3.38;1.10;;;;;;;;;;5053798;28;20127;-78
2023/01/14 12:01:13;;;;;;;4.65;1.33;;;;;;;;;;5052896;28;20021;-79
2023/01/14 12:03:54;;;;;;;2.90;1.00;;;;;;;;;;5058021;28;20503;-78
2023/01/14 12:06:34;;;;;;;4.60;1.25;;;;;;;;;;5043218;28;20395;-78
2023/01/14 12:09:30;;;;;;;2.85;0.80;;;;;;;;;;5057753;28;20045;-79
2023/01/14 12:12:10;;;;;;;2.80;1.00;;;;;;;;;;5056744;28;20051;-78
2023/01/14 12:18:05;;;;;;;;;;;;;;;;;;;;;
2023/01/14 12:20:41;;;;;;;2.75;0.90;;;;;;;;;;5054150;28;20020;-78
2023/01/14 12:23:27;;;;;;;4.18;1.35;;;;;;;;;;5051103;28;20563;-77
2023/01/14 12:26:02;;;;;;;4.38;1.05;;;;;;;;;;5090168;28;20554;-78
2023/01/14 12:28:32;;;;;;;3.40;0.98;;;;;;;;;;5110766;28;20039;-78
2023/01/14 12:31:27;;;;;;;2.63;0.80;;;;;;;;;;5110578;28;20257;-77
2023/01/14 12:34:01;;;;;;;3.38;0.93;;;;;;;;;;5095402;28;20547;-78
2023/01/14 12:36:48;;;;;;;3.33;0.90;;;;;;;;;;5112882;28;20028;-78
2023/01/14 12:47:54;;;;;;;3.92;0.82;;;;;;;;;;5095154;28;20035;-77
2023/01/14 12:50:29;;;;;;;3.22;0.93;;;;;;;;;;5103801;28;20028;-78
2023/01/14 12:52:59;;;;;;;2.80;0.73;;;;;;;;;;5091727;28;20024;-78
2023/01/14 12:55:36;;;;;;;5.28;1.38;;;;;;;;;;5100637;28;20020;-77
2023/01/14 12:58:26;;;;;;;4.43;1.13;;;;;;;;;;5099773;28;20035;-78
2023/01/14 13:01:01;;;;;;;3.38;0.90;;;;;;;;;;5092427;28;20394;-78
2023/01/14 13:03:37;;;;;;;2.58;0.73;;;;;;;;;;5110346;28;20016;-77
2023/01/14 13:06:17;;;;;;;2.90;0.93;;;;;;;;;;5101293;28;20036;-78
2023/01/14 13:08:48;;;;;;;2.22;0.68;;;;;;;;;;5108048;27;20564;-77
2023/01/14 13:14:25;;;;;;;3.33;0.80;;;;;;;;;;5100071;28;20501;-79
2023/01/14 13:17:02;;;;;;;3.30;0.82;;;;;;;;;;5110310;27;20027;-79
2023/01/14 13:19:48;;;;;;;2.15;0.60;;;;;;;;;;5099250;28;20020;-79
2023/01/14 13:22:37;;;;;;;2.72;0.93;;;;;;;;;;5102624;28;20020;-78
2023/01/14 13:25:18;;;;;;;2.30;0.80;;;;;;;;;;5114869;28;20035;-78
2023/01/14 13:27:46;;;;;;;2.75;0.80;;;;;;;;;;5114312;28;20036;-80
2023/01/14 13:30:19;;;;;;;3.20;0.73;;;;;;;;;;5090981;28;20038;-79
2023/01/14 13:33:06;;;;;;;3.03;0.90;;;;;;;;;;5109889;28;20073;-79
2023/01/14 13:35:36;;;;;;;3.15;0.80;;;;;;;;;;5114632;28;20024;-77
2023/01/14 13:38:05;;;;;;;3.42;0.70;;;;;;;;;;5110058;28;20024;-79
2023/01/14 13:43:31;;;;;;;4.47;0.90;;;;;;;;;;5107832;28;20038;-79
2023/01/14 13:46:01;;;;;;;2.90;0.95;;;;;;;;;;5076884;28;20058;-79
2023/01/14 13:48:46;;;;;;;4.63;1.98;;;;;;;;;;5094298;28;20040;-77
2023/01/14 13:51:26;;;;;;;2.20;0.80;;;;;;;;;;5099958;28;20030;-77
2023/01/14 13:54:18;;;;;;;3.35;1.10;;;;;;;;;;5116152;28;20034;-78
2023/01/14 13:57:15;;;;;;;4.13;0.80;;;;;;;;;;5109600;28;20035;-79
2023/01/14 13:59:49;;;;;;;4.57;1.23;;;;;;;;;;5114784;28;20026;-80
2023/01/14 14:05:32;;;;;;;3.47;1.00;;;;;;;;;;5028958;28;20041;-79
2023/01/14 14:08:05;;;;;;;3.30;0.95;;;;;;;;;;5007956;28;20118;-79
2023/01/14 14:10:46;;;;;;;3.20;0.82;;;;;;;;;;5010771;28;20030;-78
2023/01/14 14:16:22;;;;;;;2.80;0.98;;;;;;;;;;5015629;28;20049;-78
2023/01/14 14:18:55;;;;;;;3.15;1.05;;;;;;;;;;4996307;28;20034;-80
2023/01/14 14:21:32;;;;;;;2.55;0.80;;;;;;;;;;4995499;28;20037;-79
2023/01/14 14:24:26;;;;;;;;;;;;;;;;;;;;;
2023/01/14 14:27:06;;;;;;;3.10;0.93;;;;;;;;;;4956946;28;20041;-78
2023/01/14 14:30:14;;;;;;;3.80;1.10;;;;;;;;;;4972354;28;20537;-79
2023/01/14 14:32:44;;;;;;;2.97;0.90;;;;;;;;;;4958572;28;20131;-79
2023/01/14 14:35:19;;;;;;;3.95;0.98;;;;;;;;;;4972031;28;20034;-78
2023/01/14 14:37:56;;;;;;;3.53;1.25;;;;;;;;;;4963902;28;20023;-78
2023/01/14 14:40:27;;;;;;;4.93;1.67;;;;;;;;;;4971811;28;20062;-79
2023/01/14 14:43:00;;;;;;;4.53;1.60;;;;;;;;;;5016545;28;20030;-78
2023/01/14 14:45:36;;;;;;;3.83;1.20;;;;;;;;;;5014455;28;20064;-79
2023/01/14 14:48:21;;;;;;;5.55;1.95;;;;;;;;;;5027477;28;20041;-78
2023/01/14 14:51:03;;;;;;;5.22;2.33;;;;;;;;;;5034454;28;20033;-78
2023/01/14 14:53:37;;;;;;;5.55;2.30;;;;;;;;;;5031841;28;20047;-79
2023/01/14 14:56:27;;;;;;;6.82;2.60;;;;;;;;;;5032458;28;20029;-79
2023/01/14 14:59:00;;;;;;;7.70;3.30;;;;;;;;;;5017462;28;20072;-79
2023/01/14 15:01:39;;;;;;;9.85;3.67;;;;;;;;;;5049863;28;20041;-79
2023/01/14 15:04:07;;;;;;;14.38;3.40;;;;;;;;;;5033825;28;20021;-79
2023/01/14 15:06:47;;;;;;;6.28;2.78;;;;;;;;;;5032424;28;20083;-79
2023/01/14 15:09:22;;;;;;;5.85;2.22;;;;;;;;;;5034037;28;20064;-79
2023/01/14 15:11:52;;;;;;;5.18;1.80;;;;;;;;;;5021477;28;20064;-79
2023/01/14 15:14:23;;;;;;;4.10;1.60;;;;;;;;;;5018464;28;20037;-79
2023/01/14 15:16:55;;;;;;;5.30;1.40;;;;;;;;;;5029594;28;20029;-79
2023/01/14 15:19:25;;;;;;;5.85;1.77;;;;;;;;;;5042473;28;20029;-79
2023/01/14 15:22:00;;;;;;;4.05;1.40;;;;;;;;;;5032609;28;20041;-79
2023/01/14 15:24:51;;;;;;;5.15;1.02;;;;;;;;;;5023350;28;20311;-78
2023/01/14 15:27:24;;;;;;;4.38;1.80;;;;;;;;;;5013190;28;20030;-79
2023/01/14 15:30:00;;;;;;;5.80;2.90;;;;;;;;;;5019656;28;20032;-79
2023/01/14 15:32:40;;;;;;;7.45;2.53;;;;;;;;;;5032647;28;20026;-79
2023/01/14 15:35:07;;;;;;;7.57;2.70;;;;;;;;;;5032410;28;20132;-79
2023/01/14 15:37:37;;;;;;;7.82;2.85;;;;;;;;;;5039268;28;20108;-79
2023/01/14 15:40:12;;;;;;;11.40;3.38;;;;;;;;;;5047094;28;20029;-80
2023/01/14 15:42:47;;;;;;;11.00;4.18;;;;;;;;;;5033302;28;20033;-78
2023/01/14 15:45:25;;;;;;;6.82;1.83;;;;;;;;;;5024070;28;20049;-78
2023/01/14 15:48:06;;;;;;;4.95;1.58;;;;;;;;;;5030558;28;20088;-79
2023/01/14 15:50:44;;;;;;;10.40;1.67;;;;;;;;;;5037143;28;20036;-79
2023/01/14 15:53:23;;;;;;;6.00;2.35;;;;;;;;;;5028137;28;20130;-79
2023/01/14 15:56:09;;;;;;;6.60;2.40;;;;;;;;;;5037867;28;20519;-79
2023/01/14 15:58:42;;;;;;;8.60;3.28;;;;;;;;;;5037402;28;20540;-79
2023/01/14 16:01:31;;;;;;;7.25;2.05;;;;;;;;;;5032718;28;20063;-79
2023/01/14 16:04:05;;;;;;;6.10;1.95;;;;;;;;;;5012310;28;20064;-80
2023/01/14 16:06:35;;;;;;;7.63;2.83;;;;;;;;;;5026540;28;20441;-77
2023/01/14 16:09:28;;;;;;;7.00;3.25;;;;;;;;;;5029620;28;20026;-80